Mantador, ND

2:00 AM CST on February 06, 2016 (GMT -0600)
Hall Township | | Change Station
CLOSE
Current Station
Personal Weather Station
Location: Milnor, ND
Elevation: 1079 ft
Nearby Weather Stations
Active Advisory: Blizzard Watch

Elev 1079 ft 46.22 °N, 97.36 °W | Updated 10 minutes ago

Mostly Cloudy
Mostly Cloudy
22.1 °F
Feels Like 12 °F
N
9.4
Wind Variable Wind from SSW

Today
High -- | Low -- °F
--% Chance of Precip.
Yesterday
High -- | Low -- °F
Precip. -- in
Pressure 30.11 in
Visibility 10.0 miles
Clouds Clear
Windchill 12 °F
Dew Point 18 °F
Humidity 83%
Rainfall 0.00 in
Snow Depth Not available.
7:44 AM 5:39 PM
Waning Crescent, 7% visible
METAR KETH 060756Z AUTO 18007KT 10SM CLR M06/M07 A3011 RMK AO2
Pressure 30.11 in
Visibility 10.0 miles
Clouds Clear
Windchill 12 °F
Dew Point 18 °F
Humidity 83%
Rainfall 0.00 in
Snow Depth Not available.
7:44 AM 5:39 PM
Waning Crescent, 7% visible
METAR KETH 060756Z AUTO 18007KT 10SM CLR M06/M07 A3011 RMK AO2

10-Day Weather Forecast

Almanac

Astronomy

Feb. 06, 2016 Rise Set
Actual Time
Civil Twilight
Nautical Twilight
Astronomical Twilight
Moon
Length of Visible Light
Length of Day
Tomorrow will be .
, % of the Moon is Illuminated

Today's Extremes

State Highs State Lows

Community

WunderPhotos

Upload Photos

1,890,933 photos uploaded!

WunderBlog® & News

Nearby

Air Quality

  Air Quality AQ Index Pollutant
Not available.

Snow Depth

Station Depth Elevation

Earthquake Activity

City Distance Mag. Time & Date
Minimum magnitude displayed is 2.5.

Coastal Water Temperatures

Place Temperature

Stations

Nearby Weather Stations

Station Location Temp. Windchill Dew Point Humidity Wind Precip. Elev Updated Type
                   

Watches & Warnings

Blizzard Watch
Issued: 3:13 PM CST Feb. 5, 2016 – National Weather Service

... Blizzard watch in effect from Sunday morning through late
Sunday night...

The National Weather Service in Grand Forks has issued a blizzard
watch... which is in effect from Sunday morning through late
Sunday night.

* Timing... blizzard conditions are possible from Sunday morning
through late Sunday night.

* Winds / visibilities... winds gusting as high as 60 mph could
cause whiteout conditions in blowing snow. Significant drifting
of the snow is likely... especially in open areas.

* Snow accumulations... total snow accumulations 2 to 4 inches are
possible.

* Impacts... travel could be very difficult to impossible Sunday
and Sunday night.

Precautionary/preparedness actions...

A blizzard watch means there is a potential for falling and/or
blowing snow with strong winds and extremely poor visibilities.
This can lead to whiteout conditions and make travel very
dangerous.